Rutherford, Tennessee
Current Conditions -  °F | °C
As of 6:35 PM on Sunday 25 Jan 2015 (Local Time) from KUCY Reporting Station
Overcast Overcast  
Wind Chill: 40°   Ceiling: 2600
Heat Index: 43°   Visibility: 10mi
Dew Point: 43°   Wind: 5mph
Humidity: 100%   Direction: 250°WSW
Pressure: 29.74"   Gusts: NA
Location:  36.13°N, 88.99°W
Report Text: KUCY 260035Z AUTO 25004KT 10SM SCT018 BKN026 OVC049 06/06 A2974 RMK
Loading
Personal Weather Stations






























Interactive Weather Map New forecast layout! Learn more

10-Day Weather Forecast

Advertisements
Track Severe Weather on mobile